sensor_id;sensor_type;location;lat;lon;timestamp;temperature;humidity
39655;DHT22;25336;59.944;11.010;2022-11-15T00:01:48;7.70;77.90
39655;DHT22;25336;59.944;11.010;2022-11-15T00:04:14;7.40;77.60
39655;DHT22;25336;59.944;11.010;2022-11-15T00:06:40;7.40;77.50
39655;DHT22;25336;59.944;11.010;2022-11-15T00:09:06;7.40;77.40
39655;DHT22;25336;59.944;11.010;2022-11-15T00:11:31;7.40;77.40
39655;DHT22;25336;59.944;11.010;2022-11-15T00:13:57;7.40;77.20
39655;DHT22;25336;59.944;11.010;2022-11-15T00:16:24;7.40;77.10
39655;DHT22;25336;59.944;11.010;2022-11-15T00:18:50;7.40;77.10
39655;DHT22;25336;59.944;11.010;2022-11-15T00:21:16;7.40;77.20
39655;DHT22;25336;59.944;11.010;2022-11-15T00:23:42;8.80;78.20
39655;DHT22;25336;59.944;11.010;2022-11-15T00:26:12;7.40;77.40
39655;DHT22;25336;59.944;11.010;2022-11-15T00:28:38;7.40;77.50
39655;DHT22;25336;59.944;11.010;2022-11-15T00:31:06;8.10;78.10
39655;DHT22;25336;59.944;11.010;2022-11-15T00:33:32;7.30;77.60
39655;DHT22;25336;59.944;11.010;2022-11-15T00:36:08;7.40;77.60
39655;DHT22;25336;59.944;11.010;2022-11-15T00:38:36;7.40;77.60
39655;DHT22;25336;59.944;11.010;2022-11-15T00:41:05;7.40;78.10
39655;DHT22;25336;59.944;11.010;2022-11-15T00:43:32;8.50;78.10
39655;DHT22;25336;59.944;11.010;2022-11-15T00:45:58;8.40;78.10
39655;DHT22;25336;59.944;11.010;2022-11-15T00:48:23;8.90;78.30
39655;DHT22;25336;59.944;11.010;2022-11-15T00:50:49;7.40;77.40
39655;DHT22;25336;59.944;11.010;2022-11-15T00:53:16;8.90;78.30
39655;DHT22;25336;59.944;11.010;2022-11-15T00:55:42;7.40;77.20
39655;DHT22;25336;59.944;11.010;2022-11-15T00:58:08;8.40;77.90
39655;DHT22;25336;59.944;11.010;2022-11-15T01:00:33;7.30;77.90
39655;DHT22;25336;59.944;11.010;2022-11-15T01:03:02;7.30;77.10
39655;DHT22;25336;59.944;11.010;2022-11-15T01:05:27;7.30;77.10
39655;DHT22;25336;59.944;11.010;2022-11-15T01:07:54;8.60;78.00
39655;DHT22;25336;59.944;11.010;2022-11-15T01:10:20;7.50;77.30
39655;DHT22;25336;59.944;11.010;2022-11-15T01:12:46;8.90;78.20
39655;DHT22;25336;59.944;11.010;2022-11-15T01:15:12;9.00;78.40
39655;DHT22;25336;59.944;11.010;2022-11-15T01:17:37;8.20;77.90
39655;DHT22;25336;59.944;11.010;2022-11-15T01:20:03;8.60;78.20
39655;DHT22;25336;59.944;11.010;2022-11-15T01:22:29;7.20;77.20
39655;DHT22;25336;59.944;11.010;2022-11-15T01:24:55;8.00;77.70
39655;DHT22;25336;59.944;11.010;2022-11-15T01:27:21;7.20;77.20
39655;DHT22;25336;59.944;11.010;2022-11-15T01:29:46;7.10;77.30
39655;DHT22;25336;59.944;11.010;2022-11-15T01:32:12;7.10;77.30
39655;DHT22;25336;59.944;11.010;2022-11-15T01:34:38;7.00;77.30
39655;DHT22;25336;59.944;11.010;2022-11-15T01:37:03;7.80;77.90
39655;DHT22;25336;59.944;11.010;2022-11-15T01:39:29;8.60;78.70
39655;DHT22;25336;59.944;11.010;2022-11-15T01:41:55;8.20;78.40
39655;DHT22;25336;59.944;11.010;2022-11-15T01:44:44;6.80;77.40
39655;DHT22;25336;59.944;11.010;2022-11-15T01:50:15;6.60;77.70
39655;DHT22;25336;59.944;11.010;2022-11-15T01:52:42;6.60;78.10
39655;DHT22;25336;59.944;11.010;2022-11-15T01:55:24;7.30;78.60
39655;DHT22;25336;59.944;11.010;2022-11-15T01:57:54;6.50;78.30
39655;DHT22;25336;59.944;11.010;2022-11-15T02:00:20;7.60;79.10
39655;DHT22;25336;59.944;11.010;2022-11-15T02:02:46;6.40;78.50
39655;DHT22;25336;59.944;11.010;2022-11-15T02:05:12;6.30;78.50
39655;DHT22;25336;59.944;11.010;2022-11-15T02:07:38;7.40;79.50
39655;DHT22;25336;59.944;11.010;2022-11-15T02:10:12;6.90;79.40
39655;DHT22;25336;59.944;11.010;2022-11-15T02:12:39;6.20;79.30
39655;DHT22;25336;59.944;11.010;2022-11-15T02:15:06;6.20;79.50
39655;DHT22;25336;59.944;11.010;2022-11-15T02:26:47;6.20;80.10
39655;DHT22;25336;59.944;11.010;2022-11-15T02:29:47;6.20;80.20
39655;DHT22;25336;59.944;11.010;2022-11-15T02:37:56;6.20;79.70
39655;DHT22;25336;59.944;11.010;2022-11-15T02:40:39;6.20;79.90
39655;DHT22;25336;59.944;11.010;2022-11-15T02:43:23;6.10;79.60
39655;DHT22;25336;59.944;11.010;2022-11-15T02:46:38;6.10;79.40
39655;DHT22;25336;59.944;11.010;2022-11-15T02:49:28;6.00;79.50
39655;DHT22;25336;59.944;11.010;2022-11-15T02:51:55;6.00;79.20
39655;DHT22;25336;59.944;11.010;2022-11-15T02:54:26;5.90;79.40
39655;DHT22;25336;59.944;11.010;2022-11-15T02:57:02;5.90;79.50
39655;DHT22;25336;59.944;11.010;2022-11-15T03:11:10;5.80;79.40
39655;DHT22;25336;59.944;11.010;2022-11-15T03:14:02;6.50;80.00
39655;DHT22;25336;59.944;11.010;2022-11-15T03:16:38;5.60;79.40
39655;DHT22;25336;59.944;11.010;2022-11-15T03:19:23;5.60;79.20
39655;DHT22;25336;59.944;11.010;2022-11-15T03:21:52;5.60;79.30
39655;DHT22;25336;59.944;11.010;2022-11-15T03:24:21;7.30;80.40
39655;DHT22;25336;59.944;11.010;2022-11-15T03:26:48;6.10;79.60
39655;DHT22;25336;59.944;11.010;2022-11-15T03:29:19;5.40;79.20
39655;DHT22;25336;59.944;11.010;2022-11-15T03:31:51;5.40;79.20
39655;DHT22;25336;59.944;11.010;2022-11-15T03:37:00;6.50;80.20
39655;DHT22;25336;59.944;11.010;2022-11-15T03:39:26;5.30;79.40
39655;DHT22;25336;59.944;11.010;2022-11-15T03:44:46;5.20;79.70
39655;DHT22;25336;59.944;11.010;2022-11-15T03:47:20;5.30;79.80
39655;DHT22;25336;59.944;11.010;2022-11-15T03:49:52;5.20;79.80
39655;DHT22;25336;59.944;11.010;2022-11-15T03:52:20;6.50;80.60
39655;DHT22;25336;59.944;11.010;2022-11-15T03:54:54;5.20;79.70
39655;DHT22;25336;59.944;11.010;2022-11-15T03:57:20;5.20;79.90
39655;DHT22;25336;59.944;11.010;2022-11-15T03:59:46;5.10;79.90
39655;DHT22;25336;59.944;11.010;2022-11-15T04:02:12;5.50;80.20
39655;DHT22;25336;59.944;11.010;2022-11-15T04:04:37;5.10;79.90
39655;DHT22;25336;59.944;11.010;2022-11-15T04:07:03;6.00;80.60
39655;DHT22;25336;59.944;11.010;2022-11-15T04:09:29;5.00;80.40
39655;DHT22;25336;59.944;11.010;2022-11-15T04:11:55;5.00;80.50
39655;DHT22;25336;59.944;11.010;2022-11-15T04:14:20;5.00;80.40
39655;DHT22;25336;59.944;11.010;2022-11-15T04:16:46;5.40;81.00
39655;DHT22;25336;59.944;11.010;2022-11-15T04:19:11;5.10;81.10
39655;DHT22;25336;59.944;11.010;2022-11-15T04:21:56;2.70;79.70
39655;DHT22;25336;59.944;11.010;2022-11-15T04:24:40;5.00;81.30
39655;DHT22;25336;59.944;11.010;2022-11-15T04:27:06;5.00;81.20
39655;DHT22;25336;59.944;11.010;2022-11-15T04:29:31;5.00;81.30
39655;DHT22;25336;59.944;11.010;2022-11-15T04:32:02;5.10;81.00
39655;DHT22;25336;59.944;11.010;2022-11-15T04:34:27;6.50;82.40
39655;DHT22;25336;59.944;11.010;2022-11-15T04:36:53;5.00;81.00
39655;DHT22;25336;59.944;11.010;2022-11-15T04:39:37;5.00;81.20
39655;DHT22;25336;59.944;11.010;2022-11-15T04:42:03;5.00;81.10
39655;DHT22;25336;59.944;11.010;2022-11-15T04:44:29;5.00;81.10
39655;DHT22;25336;59.944;11.010;2022-11-15T04:46:55;5.00;81.10
39655;DHT22;25336;59.944;11.010;2022-11-15T04:49:20;6.60;82.20
39655;DHT22;25336;59.944;11.010;2022-11-15T04:51:46;5.00;81.00
39655;DHT22;25336;59.944;11.010;2022-11-15T04:54:12;5.00;81.10
39655;DHT22;25336;59.944;11.010;2022-11-15T04:56:37;5.00;81.10
39655;DHT22;25336;59.944;11.010;2022-11-15T04:59:03;5.40;81.60
39655;DHT22;25336;59.944;11.010;2022-11-15T05:01:28;6.10;81.80
39655;DHT22;25336;59.944;11.010;2022-11-15T05:03:54;6.60;82.10
39655;DHT22;25336;59.944;11.010;2022-11-15T05:06:39;6.60;82.10
39655;DHT22;25336;59.944;11.010;2022-11-15T05:09:04;5.00;81.10
39655;DHT22;25336;59.944;11.010;2022-11-15T05:11:30;5.00;81.20
39655;DHT22;25336;59.944;11.010;2022-11-15T05:13:56;6.60;82.20
39655;DHT22;25336;59.944;11.010;2022-11-15T05:16:21;5.00;81.30
39655;DHT22;25336;59.944;11.010;2022-11-15T05:18:51;4.90;81.20
39655;DHT22;25336;59.944;11.010;2022-11-15T05:21:17;4.90;81.20
39655;DHT22;25336;59.944;11.010;2022-11-15T05:23:43;5.00;81.60
39655;DHT22;25336;59.944;11.010;2022-11-15T05:26:09;5.80;81.70
39655;DHT22;25336;59.944;11.010;2022-11-15T05:28:35;5.00;81.00
39655;DHT22;25336;59.944;11.010;2022-11-15T05:31:06;5.00;81.00
39655;DHT22;25336;59.944;11.010;2022-11-15T05:33:33;6.10;81.60
39655;DHT22;25336;59.944;11.010;2022-11-15T05:38:48;4.90;80.90
39655;DHT22;25336;59.944;11.010;2022-11-15T05:41:16;4.90;80.90
39655;DHT22;25336;59.944;11.010;2022-11-15T05:43:45;5.90;81.40
39655;DHT22;25336;59.944;11.010;2022-11-15T05:46:12;6.70;81.90
39655;DHT22;25336;59.944;11.010;2022-11-15T05:48:42;4.90;80.90
39655;DHT22;25336;59.944;11.010;2022-11-15T05:51:08;4.90;80.80
39655;DHT22;25336;59.944;11.010;2022-11-15T05:53:35;6.40;81.80
39655;DHT22;25336;59.944;11.010;2022-11-15T05:56:03;4.90;80.80
39655;DHT22;25336;59.944;11.010;2022-11-15T05:58:31;4.90;80.90
39655;DHT22;25336;59.944;11.010;2022-11-15T06:00:57;4.90;80.80
39655;DHT22;25336;59.944;11.010;2022-11-15T06:03:23;4.90;80.80
39655;DHT22;25336;59.944;11.010;2022-11-15T06:05:48;4.90;80.90
39655;DHT22;25336;59.944;11.010;2022-11-15T06:08:14;5.40;81.30
39655;DHT22;25336;59.944;11.010;2022-11-15T06:10:40;4.90;81.00
39655;DHT22;25336;59.944;11.010;2022-11-15T06:13:05;4.90;80.90
39655;DHT22;25336;59.944;11.010;2022-11-15T06:15:34;4.90;80.90
39655;DHT22;25336;59.944;11.010;2022-11-15T06:18:01;6.40;81.90
39655;DHT22;25336;59.944;11.010;2022-11-15T06:20:27;5.00;81.00
39655;DHT22;25336;59.944;11.010;2022-11-15T06:22:58;5.00;81.00
39655;DHT22;25336;59.944;11.010;2022-11-15T06:25:24;6.00;81.60
39655;DHT22;25336;59.944;11.010;2022-11-15T06:27:54;5.00;80.90
39655;DHT22;25336;59.944;11.010;2022-11-15T06:30:21;5.00;80.70
39655;DHT22;25336;59.944;11.010;2022-11-15T06:32:47;5.00;80.70
39655;DHT22;25336;59.944;11.010;2022-11-15T06:35:13;5.10;80.70
39655;DHT22;25336;59.944;11.010;2022-11-15T06:37:39;5.10;80.80
39655;DHT22;25336;59.944;11.010;2022-11-15T06:40:06;5.10;80.90
39655;DHT22;25336;59.944;11.010;2022-11-15T06:42:32;5.10;80.80
39655;DHT22;25336;59.944;11.010;2022-11-15T06:44:58;5.30;80.90
39655;DHT22;25336;59.944;11.010;2022-11-15T06:47:23;5.00;80.90
39655;DHT22;25336;59.944;11.010;2022-11-15T06:49:49;5.10;81.00
39655;DHT22;25336;59.944;11.010;2022-11-15T06:52:14;6.30;81.90
39655;DHT22;25336;59.944;11.010;2022-11-15T06:54:40;5.10;81.20
39655;DHT22;25336;59.944;11.010;2022-11-15T06:57:06;5.00;81.10
39655;DHT22;25336;59.944;11.010;2022-11-15T06:59:31;5.10;81.30
39655;DHT22;25336;59.944;11.010;2022-11-15T07:01:57;6.70;82.30
39655;DHT22;25336;59.944;11.010;2022-11-15T07:04:22;5.10;81.30
39655;DHT22;25336;59.944;11.010;2022-11-15T07:06:48;6.20;82.10
39655;DHT22;25336;59.944;11.010;2022-11-15T07:09:14;5.10;81.30
39655;DHT22;25336;59.944;11.010;2022-11-15T07:11:40;5.20;81.40
39655;DHT22;25336;59.944;11.010;2022-11-15T07:14:05;5.20;81.30
39655;DHT22;25336;59.944;11.010;2022-11-15T07:16:31;6.50;82.20
39655;DHT22;25336;59.944;11.010;2022-11-15T07:18:57;5.20;81.40
39655;DHT22;25336;59.944;11.010;2022-11-15T07:21:22;5.30;81.50
39655;DHT22;25336;59.944;11.010;2022-11-15T07:23:48;5.30;81.50
39655;DHT22;25336;59.944;11.010;2022-11-15T07:26:14;5.30;81.50
39655;DHT22;25336;59.944;11.010;2022-11-15T07:28:39;5.40;81.60
39655;DHT22;25336;59.944;11.010;2022-11-15T07:31:07;5.40;81.50
39655;DHT22;25336;59.944;11.010;2022-11-15T07:33:33;5.50;81.60
39655;DHT22;25336;59.944;11.010;2022-11-15T07:36:01;7.30;82.60
39655;DHT22;25336;59.944;11.010;2022-11-15T07:38:30;5.80;81.60
39655;DHT22;25336;59.944;11.010;2022-11-15T07:40:57;5.60;81.40
39655;DHT22;25336;59.944;11.010;2022-11-15T07:43:23;5.60;81.50
39655;DHT22;25336;59.944;11.010;2022-11-15T07:45:48;5.60;81.40
39655;DHT22;25336;59.944;11.010;2022-11-15T07:48:14;5.90;81.50
39655;DHT22;25336;59.944;11.010;2022-11-15T07:50:42;5.70;81.40
39655;DHT22;25336;59.944;11.010;2022-11-15T07:53:09;5.80;81.40
39655;DHT22;25336;59.944;11.010;2022-11-15T07:55:36;5.60;81.20
39655;DHT22;25336;59.944;11.010;2022-11-15T07:58:03;5.80;81.30
39655;DHT22;25336;59.944;11.010;2022-11-15T08:00:30;5.80;81.40
39655;DHT22;25336;59.944;11.010;2022-11-15T08:03:22;5.90;82.20
39655;DHT22;25336;59.944;11.010;2022-11-15T08:05:50;5.80;81.40
39655;DHT22;25336;59.944;11.010;2022-11-15T08:08:16;7.40;82.40
39655;DHT22;25336;59.944;11.010;2022-11-15T08:10:42;5.90;81.30
39655;DHT22;25336;59.944;11.010;2022-11-15T08:13:10;6.00;81.20
39655;DHT22;25336;59.944;11.010;2022-11-15T08:15:36;6.10;81.30
39655;DHT22;25336;59.944;11.010;2022-11-15T08:18:05;6.00;81.10
39655;DHT22;25336;59.944;11.010;2022-11-15T08:20:31;6.00;81.10
39655;DHT22;25336;59.944;11.010;2022-11-15T08:22:58;6.00;81.00
39655;DHT22;25336;59.944;11.010;2022-11-15T08:25:25;6.90;81.50
39655;DHT22;25336;59.944;11.010;2022-11-15T08:27:58;6.10;81.00
39655;DHT22;25336;59.944;11.010;2022-11-15T08:30:24;6.10;80.90
39655;DHT22;25336;59.944;11.010;2022-11-15T08:32:51;7.40;81.70
39655;DHT22;25336;59.944;11.010;2022-11-15T08:35:18;7.70;81.80
39655;DHT22;25336;59.944;11.010;2022-11-15T08:37:44;6.20;80.90
39655;DHT22;25336;59.944;11.010;2022-11-15T08:40:09;7.90;82.00
39655;DHT22;25336;59.944;11.010;2022-11-15T08:42:35;6.20;80.80
39655;DHT22;25336;59.944;11.010;2022-11-15T08:45:01;7.50;81.80
39655;DHT22;25336;59.944;11.010;2022-11-15T08:47:27;6.30;80.90
39655;DHT22;25336;59.944;11.010;2022-11-15T08:49:53;6.30;80.90
39655;DHT22;25336;59.944;11.010;2022-11-15T08:52:18;6.30;80.80
39655;DHT22;25336;59.944;11.010;2022-11-15T08:54:44;6.90;81.10
39655;DHT22;25336;59.944;11.010;2022-11-15T08:57:10;7.80;81.60
39655;DHT22;25336;59.944;11.010;2022-11-15T08:59:36;6.40;80.70
39655;DHT22;25336;59.944;11.010;2022-11-15T09:02:02;7.60;81.40
39655;DHT22;25336;59.944;11.010;2022-11-15T09:04:28;7.40;81.30
39655;DHT22;25336;59.944;11.010;2022-11-15T09:06:54;7.10;81.10
39655;DHT22;25336;59.944;11.010;2022-11-15T09:09:20;7.80;81.40
39655;DHT22;25336;59.944;11.010;2022-11-15T09:11:45;6.50;80.60
39655;DHT22;25336;59.944;11.010;2022-11-15T09:14:12;6.50;80.70
39655;DHT22;25336;59.944;11.010;2022-11-15T09:16:38;6.50;80.60
39655;DHT22;25336;59.944;11.010;2022-11-15T09:19:04;6.60;80.70
39655;DHT22;25336;59.944;11.010;2022-11-15T09:21:30;6.50;80.80
39655;DHT22;25336;59.944;11.010;2022-11-15T09:23:56;8.10;81.80
39655;DHT22;25336;59.944;11.010;2022-11-15T09:26:21;6.60;80.80
39655;DHT22;25336;59.944;11.010;2022-11-15T09:28:47;7.30;81.30
39655;DHT22;25336;59.944;11.010;2022-11-15T09:31:13;8.00;81.70
39655;DHT22;25336;59.944;11.010;2022-11-15T09:33:39;8.40;82.00
39655;DHT22;25336;59.944;11.010;2022-11-15T09:36:07;6.60;80.90
39655;DHT22;25336;59.944;11.010;2022-11-15T09:38:33;6.70;80.90
39655;DHT22;25336;59.944;11.010;2022-11-15T09:49:44;6.80;81.00
39655;DHT22;25336;59.944;11.010;2022-11-15T09:52:12;6.80;80.90
39655;DHT22;25336;59.944;11.010;2022-11-15T09:54:39;6.70;80.90
39655;DHT22;25336;59.944;11.010;2022-11-15T09:57:21;6.70;80.90
39655;DHT22;25336;59.944;11.010;2022-11-15T10:00:16;8.40;82.00
39655;DHT22;25336;59.944;11.010;2022-11-15T10:05:28;7.40;81.60
39655;DHT22;25336;59.944;11.010;2022-11-15T10:10:44;6.80;81.20
39655;DHT22;25336;59.944;11.010;2022-11-15T10:13:26;6.80;81.20
39655;DHT22;25336;59.944;11.010;2022-11-15T10:16:05;8.50;82.20
39655;DHT22;25336;59.944;11.010;2022-11-15T10:21:20;8.00;81.70
39655;DHT22;25336;59.944;11.010;2022-11-15T10:23:47;7.10;81.20
39655;DHT22;25336;59.944;11.010;2022-11-15T10:26:15;8.00;81.70
39655;DHT22;25336;59.944;11.010;2022-11-15T10:28:41;8.70;82.00
39655;DHT22;25336;59.944;11.010;2022-11-15T10:31:23;6.90;80.80
39655;DHT22;25336;59.944;11.010;2022-11-15T10:33:51;7.70;81.20
39655;DHT22;25336;59.944;11.010;2022-11-15T10:36:22;8.40;81.50
39655;DHT22;25336;59.944;11.010;2022-11-15T10:41:22;7.00;80.60
39655;DHT22;25336;59.944;11.010;2022-11-15T10:46:36;8.40;81.40
39655;DHT22;25336;59.944;11.010;2022-11-15T10:49:19;7.10;80.30
39655;DHT22;25336;59.944;11.010;2022-11-15T10:51:55;7.10;80.10
39655;DHT22;25336;59.944;11.010;2022-11-15T10:56:55;7.10;80.00
39655;DHT22;25336;59.944;11.010;2022-11-15T10:59:32;8.10;80.50
39655;DHT22;25336;59.944;11.010;2022-11-15T11:02:00;7.10;79.70
39655;DHT22;25336;59.944;11.010;2022-11-15T11:04:26;7.00;79.80
39655;DHT22;25336;59.944;11.010;2022-11-15T11:07:00;7.00;79.70
39655;DHT22;25336;59.944;11.010;2022-11-15T11:09:31;7.10;79.60
39655;DHT22;25336;59.944;11.010;2022-11-15T11:11:58;7.20;79.70
39655;DHT22;25336;59.944;11.010;2022-11-15T11:14:35;8.10;80.20
39655;DHT22;25336;59.944;11.010;2022-11-15T11:17:42;7.10;79.50
39655;DHT22;25336;59.944;11.010;2022-11-15T11:20:17;7.10;78.80
39655;DHT22;25336;59.944;11.010;2022-11-15T11:36:40;7.30;78.20
39655;DHT22;25336;59.944;11.010;2022-11-15T11:47:40;7.30;77.50
39655;DHT22;25336;59.944;11.010;2022-11-15T11:52:53;7.60;77.70
39655;DHT22;25336;59.944;11.010;2022-11-15T11:55:24;7.40;77.60
39655;DHT22;25336;59.944;11.010;2022-11-15T12:06:30;7.40;76.60
39655;DHT22;25336;59.944;11.010;2022-11-15T12:17:10;7.40;76.30
39655;DHT22;25336;59.944;11.010;2022-11-15T12:19:36;7.40;76.40
39655;DHT22;25336;59.944;11.010;2022-11-15T12:22:11;8.30;76.70
39655;DHT22;25336;59.944;11.010;2022-11-15T12:24:43;7.90;76.40
39655;DHT22;25336;59.944;11.010;2022-11-15T12:29:48;7.50;75.80
39655;DHT22;25336;59.944;11.010;2022-11-15T12:32:36;7.40;75.40
39655;DHT22;25336;59.944;11.010;2022-11-15T12:35:04;8.00;75.50
39655;DHT22;25336;59.944;11.010;2022-11-15T12:43:50;7.50;74.60
39655;DHT22;25336;59.944;11.010;2022-11-15T12:46:02;7.50;73.80
39655;DHT22;25336;59.944;11.010;2022-11-15T12:51:00;7.50;74.30
39655;DHT22;25336;59.944;11.010;2022-11-15T12:53:27;8.10;74.60
39655;DHT22;25336;59.944;11.010;2022-11-15T12:58:52;7.50;73.20
39655;DHT22;25336;59.944;11.010;2022-11-15T13:07:02;7.50;73.20
39655;DHT22;25336;59.944;11.010;2022-11-15T13:12:09;8.60;74.00
39655;DHT22;25336;59.944;11.010;2022-11-15T13:14:58;7.10;73.30
39655;DHT22;25336;59.944;11.010;2022-11-15T13:17:31;8.90;74.50
39655;DHT22;25336;59.944;11.010;2022-11-15T13:22:28;7.60;73.60
39655;DHT22;25336;59.944;11.010;2022-11-15T13:30:53;7.90;73.50
39655;DHT22;25336;59.944;11.010;2022-11-15T13:35:48;7.50;73.00
39655;DHT22;25336;59.944;11.010;2022-11-15T13:40:52;7.50;73.10
39655;DHT22;25336;59.944;11.010;2022-11-15T13:48:29;7.60;72.60
39655;DHT22;25336;59.944;11.010;2022-11-15T13:50:56;7.70;73.30
39655;DHT22;25336;59.944;11.010;2022-11-15T13:53:22;8.50;73.60
39655;DHT22;25336;59.944;11.010;2022-11-15T13:55:48;9.40;73.90
39655;DHT22;25336;59.944;11.010;2022-11-15T13:58:14;7.60;72.70
39655;DHT22;25336;59.944;11.010;2022-11-15T14:00:41;7.70;72.70
39655;DHT22;25336;59.944;11.010;2022-11-15T14:03:29;7.50;72.40
39655;DHT22;25336;59.944;11.010;2022-11-15T14:06:10;7.60;71.20
39655;DHT22;25336;59.944;11.010;2022-11-15T14:08:42;8.80;71.80
39655;DHT22;25336;59.944;11.010;2022-11-15T14:11:17;9.10;72.50
39655;DHT22;25336;59.944;11.010;2022-11-15T14:16:38;7.50;71.30
39655;DHT22;25336;59.944;11.010;2022-11-15T14:19:06;7.60;71.80
39655;DHT22;25336;59.944;11.010;2022-11-15T14:21:32;7.50;71.80
39655;DHT22;25336;59.944;11.010;2022-11-15T14:24:19;7.40;71.80
39655;DHT22;25336;59.944;11.010;2022-11-15T14:26:45;7.50;71.20
39655;DHT22;25336;59.944;11.010;2022-11-15T14:29:29;7.50;71.70
39655;DHT22;25336;59.944;11.010;2022-11-15T14:32:15;7.50;71.40
39655;DHT22;25336;59.944;11.010;2022-11-15T14:34:42;9.00;72.00
39655;DHT22;25336;59.944;11.010;2022-11-15T14:39:48;7.50;71.40
39655;DHT22;25336;59.944;11.010;2022-11-15T14:42:14;8.50;72.40
39655;DHT22;25336;59.944;11.010;2022-11-15T14:44:40;9.00;72.70
39655;DHT22;25336;59.944;11.010;2022-11-15T14:47:06;9.00;71.70
39655;DHT22;25336;59.944;11.010;2022-11-15T14:49:32;7.50;70.70
39655;DHT22;25336;59.944;11.010;2022-11-15T14:51:57;7.40;70.50
39655;DHT22;25336;59.944;11.010;2022-11-15T14:54:23;8.20;71.30
39655;DHT22;25336;59.944;11.010;2022-11-15T14:56:49;7.40;70.70
39655;DHT22;25336;59.944;11.010;2022-11-15T14:59:14;8.90;71.70
39655;DHT22;25336;59.944;11.010;2022-11-15T15:01:40;7.30;70.80
39655;DHT22;25336;59.944;11.010;2022-11-15T15:04:05;7.50;71.00
39655;DHT22;25336;59.944;11.010;2022-11-15T15:06:31;7.90;70.20
39655;DHT22;25336;59.944;11.010;2022-11-15T15:08:57;8.00;70.60
39655;DHT22;25336;59.944;11.010;2022-11-15T15:11:27;8.10;69.80
39655;DHT22;25336;59.944;11.010;2022-11-15T15:13:53;8.10;70.10
39655;DHT22;25336;59.944;11.010;2022-11-15T15:16:22;8.20;70.10
39655;DHT22;25336;59.944;11.010;2022-11-15T15:18:48;7.10;68.90
39655;DHT22;25336;59.944;11.010;2022-11-15T15:21:20;7.60;69.60
39655;DHT22;25336;59.944;11.010;2022-11-15T15:23:47;7.90;69.60
39655;DHT22;25336;59.944;11.010;2022-11-15T15:26:12;7.40;69.40
39655;DHT22;25336;59.944;11.010;2022-11-15T15:28:38;8.30;69.80
39655;DHT22;25336;59.944;11.010;2022-11-15T15:31:04;7.00;69.30
39655;DHT22;25336;59.944;11.010;2022-11-15T15:33:31;8.40;70.20
39655;DHT22;25336;59.944;11.010;2022-11-15T15:35:56;9.30;70.60
39655;DHT22;25336;59.944;11.010;2022-11-15T15:38:22;7.40;69.40
39655;DHT22;25336;59.944;11.010;2022-11-15T15:40:48;7.00;68.80
39655;DHT22;25336;59.944;11.010;2022-11-15T15:43:14;8.70;71.00
39655;DHT22;25336;59.944;11.010;2022-11-15T15:45:40;7.80;69.80
39655;DHT22;25336;59.944;11.010;2022-11-15T15:48:14;7.00;69.10
39655;DHT22;25336;59.944;11.010;2022-11-15T15:50:40;6.90;69.20
39655;DHT22;25336;59.944;11.010;2022-11-15T15:53:08;7.80;69.60
39655;DHT22;25336;59.944;11.010;2022-11-15T15:55:36;6.90;68.90
39655;DHT22;25336;59.944;11.010;2022-11-15T15:58:03;7.60;69.60
39655;DHT22;25336;59.944;11.010;2022-11-15T16:00:28;7.80;69.60
39655;DHT22;25336;59.944;11.010;2022-11-15T16:02:54;6.90;69.30
39655;DHT22;25336;59.944;11.010;2022-11-15T16:05:21;7.00;68.80
39655;DHT22;25336;59.944;11.010;2022-11-15T16:07:47;6.70;69.50
39655;DHT22;25336;59.944;11.010;2022-11-15T16:12:45;7.30;69.00
39655;DHT22;25336;59.944;11.010;2022-11-15T16:15:10;7.90;69.80
39655;DHT22;25336;59.944;11.010;2022-11-15T16:17:49;8.00;70.00
39655;DHT22;25336;59.944;11.010;2022-11-15T16:20:38;6.70;68.60
39655;DHT22;25336;59.944;11.010;2022-11-15T16:23:07;6.60;68.30
39655;DHT22;25336;59.944;11.010;2022-11-15T16:25:53;6.60;68.30
39655;DHT22;25336;59.944;11.010;2022-11-15T16:28:32;7.40;68.70
39655;DHT22;25336;59.944;11.010;2022-11-15T16:31:10;7.70;68.70
39655;DHT22;25336;59.944;11.010;2022-11-15T16:33:36;6.60;68.10
39655;DHT22;25336;59.944;11.010;2022-11-15T16:36:03;6.50;68.00
39655;DHT22;25336;59.944;11.010;2022-11-15T16:38:30;6.60;68.40
39655;DHT22;25336;59.944;11.010;2022-11-15T16:40:55;7.60;68.60
39655;DHT22;25336;59.944;11.010;2022-11-15T16:43:21;7.70;68.90
39655;DHT22;25336;59.944;11.010;2022-11-15T16:45:49;6.50;68.30
39655;DHT22;25336;59.944;11.010;2022-11-15T16:50:46;7.80;68.90
39655;DHT22;25336;59.944;11.010;2022-11-15T16:53:12;6.50;68.30
39655;DHT22;25336;59.944;11.010;2022-11-15T16:55:37;8.40;70.00
39655;DHT22;25336;59.944;11.010;2022-11-15T16:58:03;7.10;69.50
39655;DHT22;25336;59.944;11.010;2022-11-15T17:00:29;7.90;70.00
39655;DHT22;25336;59.944;11.010;2022-11-15T17:02:54;7.80;70.10
39655;DHT22;25336;59.944;11.010;2022-11-15T17:05:22;8.00;70.20
39655;DHT22;25336;59.944;11.010;2022-11-15T17:07:49;6.40;69.40
39655;DHT22;25336;59.944;11.010;2022-11-15T17:10:17;7.00;69.80
39655;DHT22;25336;59.944;11.010;2022-11-15T17:12:43;7.20;69.90
39655;DHT22;25336;59.944;11.010;2022-11-15T17:15:10;6.40;69.60
39655;DHT22;25336;59.944;11.010;2022-11-15T17:17:36;6.40;69.70
39655;DHT22;25336;59.944;11.010;2022-11-15T17:20:04;6.30;69.60
39655;DHT22;25336;59.944;11.010;2022-11-15T17:22:37;6.30;69.60
39655;DHT22;25336;59.944;11.010;2022-11-15T17:25:03;6.80;69.90
39655;DHT22;25336;59.944;11.010;2022-11-15T17:27:29;6.30;69.30
39655;DHT22;25336;59.944;11.010;2022-11-15T17:29:55;6.20;69.40
39655;DHT22;25336;59.944;11.010;2022-11-15T17:32:21;6.30;69.60
39655;DHT22;25336;59.944;11.010;2022-11-15T17:34:46;8.00;70.70
39655;DHT22;25336;59.944;11.010;2022-11-15T17:37:12;6.20;69.40
39655;DHT22;25336;59.944;11.010;2022-11-15T17:39:38;6.70;69.90
39655;DHT22;25336;59.944;11.010;2022-11-15T17:42:03;7.00;69.80
39655;DHT22;25336;59.944;11.010;2022-11-15T17:44:29;6.20;69.40
39655;DHT22;25336;59.944;11.010;2022-11-15T17:46:55;6.10;69.30
39655;DHT22;25336;59.944;11.010;2022-11-15T17:49:20;6.10;69.10
39655;DHT22;25336;59.944;11.010;2022-11-15T17:51:46;7.60;70.40
39655;DHT22;25336;59.944;11.010;2022-11-15T17:54:12;7.60;70.40
39655;DHT22;25336;59.944;11.010;2022-11-15T17:56:39;6.10;69.30
39655;DHT22;25336;59.944;11.010;2022-11-15T17:59:05;6.00;69.20
39655;DHT22;25336;59.944;11.010;2022-11-15T18:01:32;7.60;70.30
39655;DHT22;25336;59.944;11.010;2022-11-15T18:04:00;6.10;69.50
39655;DHT22;25336;59.944;11.010;2022-11-15T18:06:28;7.70;70.60
39655;DHT22;25336;59.944;11.010;2022-11-15T18:08:56;7.40;70.50
39655;DHT22;25336;59.944;11.010;2022-11-15T18:11:31;6.00;69.60
39655;DHT22;25336;59.944;11.010;2022-11-15T18:13:59;6.00;69.70
39655;DHT22;25336;59.944;11.010;2022-11-15T18:16:27;6.00;69.80